Time;durP1;ratioP1;P1;durP2;ratioP2;P2;SDS_P1;SDS_P2;PMS_P1;PMS_P2;Temp;Humidity;BMP_temperature;BMP_pressure;BME280_temperature;BME280_humidity;BME280_pressure;Samples;Min_cycle;Max_cycle;Signal;HPM_P1;HPM_P2
2023/08/29 00:02:06;;;;;;;2.88;2.58;;;12.10;99.90;;;;;;5082634;28;20116;-83
2023/08/29 00:04:31;;;;;;;4.50;2.80;;;12.00;99.90;;;;;;5088759;28;20044;-83
2023/08/29 00:06:58;;;;;;;4.22;2.80;;;11.90;99.90;;;;;;5075131;28;20067;-83
2023/08/29 00:09:23;;;;;;;3.30;2.70;;;11.90;99.90;;;;;;5073083;28;20113;-83
2023/08/29 00:11:49;;;;;;;3.28;2.80;;;11.90;99.90;;;;;;5088936;28;20075;-83
2023/08/29 00:14:15;;;;;;;6.15;3.00;;;11.90;99.90;;;;;;5086572;28;20040;-83
2023/08/29 00:16:41;;;;;;;4.93;3.05;;;11.90;99.90;;;;;;5088713;28;20067;-83
2023/08/29 00:19:06;;;;;;;3.35;2.67;;;11.90;99.90;;;;;;5068732;28;20044;-83
2023/08/29 00:21:32;;;;;;;3.97;2.53;;;11.90;99.90;;;;;;5067154;28;20117;-83
2023/08/29 00:23:58;;;;;;;2.97;2.67;;;11.80;99.90;;;;;;5072290;28;20093;-83
2023/08/29 00:26:24;;;;;;;2.90;2.58;;;11.80;99.90;;;;;;5067116;28;20106;-83
2023/08/29 00:28:51;;;;;;;2.70;2.50;;;11.80;99.90;;;;;;5078576;28;20054;-83
2023/08/29 00:31:16;;;;;;;3.45;2.45;;;11.70;99.90;;;;;;5070628;28;20189;-83
2023/08/29 00:33:42;;;;;;;4.70;2.83;;;11.70;99.90;;;;;;5074929;28;20031;-83
2023/08/29 00:36:07;;;;;;;3.08;2.70;;;11.70;99.90;;;;;;5084025;28;20036;-83
2023/08/29 00:38:33;;;;;;;4.07;3.00;;;11.70;99.90;;;;;;5067504;28;20414;-83
2023/08/29 00:40:59;;;;;;;3.30;3.00;;;11.50;99.90;;;;;;5067496;28;20045;-83
2023/08/29 00:43:25;;;;;;;3.80;3.00;;;11.60;99.90;;;;;;5082258;28;20071;-83
2023/08/29 00:45:50;;;;;;;4.22;3.35;;;11.70;99.90;;;;;;5084660;28;20521;-83
2023/08/29 00:48:16;;;;;;;6.60;3.20;;;11.60;99.90;;;;;;5079253;28;20056;-83
2023/08/29 00:50:42;;;;;;;5.00;3.17;;;11.70;99.90;;;;;;5071387;28;20041;-83
2023/08/29 00:53:09;;;;;;;4.75;2.88;;;11.70;99.90;;;;;;5067568;28;20546;-83
2023/08/29 00:55:35;;;;;;;3.50;3.20;;;12.10;99.90;;;;;;5067517;28;20056;-82
2023/08/29 00:58:02;;;;;;;4.47;2.92;;;11.60;99.90;;;;;;5067315;28;20066;-83
2023/08/29 01:00:30;;;;;;;4.47;3.25;;;11.80;99.90;;;;;;5066654;28;20134;-83
2023/08/29 01:02:56;;;;;;;5.22;3.17;;;11.60;99.90;;;;;;5074155;28;20380;-83
2023/08/29 01:05:22;;;;;;;3.60;3.30;;;11.60;99.90;;;;;;5077206;28;20047;-83
2023/08/29 01:07:58;;;;;;;3.55;3.08;;;11.60;99.90;;;;;;5073033;28;20571;-83
2023/08/29 01:11:23;;;;;;;3.50;3.20;;;11.60;99.90;;;;;;5073166;28;20131;-83
2023/08/29 01:14:01;;;;;;;3.58;3.22;;;11.60;99.90;;;;;;5045600;28;20052;-83
2023/08/29 01:16:35;;;;;;;4.40;3.20;;;11.50;99.90;;;;;;5036780;28;20538;-83
2023/08/29 01:19:06;;;;;;;4.38;3.50;;;11.50;99.90;;;;;;5061357;28;20061;-83
2023/08/29 01:22:07;;;;;;;4.43;3.97;;;11.50;99.90;;;;;;5067038;28;20119;-83
2023/08/29 01:24:46;;;;;;;5.63;3.22;;;11.50;99.90;;;;;;5073462;28;20137;-83
2023/08/29 01:27:13;;;;;;;3.85;3.47;;;11.50;99.90;;;;;;5089832;28;20037;-83
2023/08/29 01:29:40;;;;;;;3.85;3.45;;;11.50;99.90;;;;;;5085230;28;20040;-83
2023/08/29 01:32:06;;;;;;;4.70;3.70;;;11.50;99.90;;;;;;5071675;28;20044;-83
2023/08/29 01:34:32;;;;;;;6.32;3.42;;;11.40;99.90;;;;;;5088896;28;20456;-83
2023/08/29 01:36:58;;;;;;;3.35;2.97;;;11.40;99.90;;;;;;5070792;28;20131;-83
2023/08/29 01:39:24;;;;;;;4.13;3.60;;;11.40;99.90;;;;;;5082616;28;20032;-83
2023/08/29 01:41:50;;;;;;;3.83;3.30;;;11.40;99.90;;;;;;5069635;28;20444;-82
2023/08/29 01:44:16;;;;;;;3.30;2.95;;;11.40;99.90;;;;;;5081412;28;20052;-83
2023/08/29 01:46:41;;;;;;;4.45;3.00;;;11.40;99.90;;;;;;5053300;28;20048;-83
2023/08/29 01:49:07;;;;;;;3.92;3.30;;;11.30;99.90;;;;;;5070895;28;20083;-83
2023/08/29 01:51:33;;;;;;;4.43;3.45;;;11.30;99.90;;;;;;5075237;28;20043;-83
2023/08/29 01:53:59;;;;;;;3.67;3.03;;;11.30;99.90;;;;;;5081600;28;20070;-82
2023/08/29 01:56:28;;;;;;;5.10;3.00;;;11.40;99.90;;;;;;5071981;28;20414;-83
2023/08/29 01:58:54;;;;;;;4.30;3.20;;;11.20;99.90;;;;;;5069741;28;20137;-83
2023/08/29 02:01:20;;;;;;;3.47;2.70;;;11.20;99.90;;;;;;5090859;28;20114;-83
2023/08/29 02:03:46;;;;;;;3.10;2.72;;;11.10;99.90;;;;;;5089396;28;20052;-83
2023/08/29 02:06:12;;;;;;;3.22;2.47;;;11.10;99.90;;;;;;5073020;28;20037;-83
2023/08/29 02:08:38;;;;;;;2.92;2.63;;;11.00;99.90;;;;;;5070772;28;20476;-82
2023/08/29 02:11:04;;;;;;;3.92;2.88;;;11.00;99.90;;;;;;5074439;28;20063;-83
2023/08/29 02:13:30;;;;;;;2.80;2.55;;;11.00;99.90;;;;;;5069685;28;20563;-83
2023/08/29 02:15:55;;;;;;;3.00;2.72;;;10.90;99.90;;;;;;5084470;28;20554;-82
2023/08/29 02:18:21;;;;;;;3.28;2.92;;;10.90;99.90;;;;;;5080854;28;20127;-82
2023/08/29 02:20:46;;;;;;;3.83;2.80;;;10.90;99.90;;;;;;5052303;28;20098;-83
2023/08/29 02:23:12;;;;;;;3.38;3.08;;;10.90;99.90;;;;;;5079582;28;20032;-83
2023/08/29 02:25:37;;;;;;;6.57;3.60;;;10.90;99.90;;;;;;5087172;28;20052;-83
2023/08/29 02:28:03;;;;;;;5.25;3.45;;;10.90;99.90;;;;;;5074642;28;20048;-83
2023/08/29 02:30:29;;;;;;;4.05;3.08;;;10.90;99.90;;;;;;5074479;28;20054;-83
2023/08/29 02:32:55;;;;;;;3.97;3.13;;;10.90;99.90;;;;;;5068002;28;20186;-83
2023/08/29 02:35:20;;;;;;;5.10;3.15;;;10.80;99.90;;;;;;5069770;28;20591;-82
2023/08/29 02:37:46;;;;;;;5.05;3.60;;;10.80;99.90;;;;;;5070756;28;20052;-82
2023/08/29 02:40:12;;;;;;;3.33;2.55;;;10.80;99.90;;;;;;5060678;28;20152;-83
2023/08/29 02:42:37;;;;;;;5.20;3.00;;;10.80;99.90;;;;;;5070680;28;20052;-82
2023/08/29 02:45:04;;;;;;;2.92;2.53;;;10.80;99.90;;;;;;5069634;28;20493;-83
2023/08/29 02:47:30;;;;;;;4.15;3.00;;;10.80;99.90;;;;;;5087567;28;20058;-83
2023/08/29 02:49:55;;;;;;;4.60;3.20;;;10.50;99.90;;;;;;5083217;28;20049;-83
2023/08/29 02:52:21;;;;;;;2.97;2.45;;;10.70;99.90;;;;;;5069709;28;20410;-82
2023/08/29 02:54:46;;;;;;;3.03;2.75;;;10.70;99.90;;;;;;5068316;28;20044;-82
2023/08/29 02:57:12;;;;;;;3.85;2.50;;;10.70;99.90;;;;;;5069972;28;20472;-83
2023/08/29 02:59:39;;;;;;;3.00;2.63;;;10.60;99.90;;;;;;5088012;28;20136;-82
2023/08/29 03:02:05;;;;;;;3.35;3.05;;;10.60;99.90;;;;;;5073949;28;20140;-82
2023/08/29 03:04:30;;;;;;;3.50;3.20;;;10.50;99.90;;;;;;5069437;28;20135;-83
2023/08/29 03:06:56;;;;;;;3.20;2.75;;;10.60;99.90;;;;;;5051617;28;20044;-83
2023/08/29 03:09:22;;;;;;;5.97;2.83;;;10.50;99.90;;;;;;5068677;28;20044;-83
2023/08/29 03:11:48;;;;;;;3.35;3.05;;;10.50;99.90;;;;;;5072507;28;20475;-82
2023/08/29 03:14:14;;;;;;;4.93;2.78;;;10.50;99.90;;;;;;5085507;28;20460;-83
2023/08/29 03:16:40;;;;;;;3.25;2.47;;;10.50;99.90;;;;;;5073916;28;20044;-82
2023/08/29 03:19:05;;;;;;;3.25;2.47;;;10.50;99.90;;;;;;5070447;28;20386;-83
2023/08/29 03:21:31;;;;;;;3.25;2.33;;;10.40;99.90;;;;;;5069774;28;20059;-82
2023/08/29 03:23:57;;;;;;;2.92;2.45;;;10.40;99.90;;;;;;5085124;28;20062;-83
2023/08/29 03:26:22;;;;;;;2.55;2.17;;;10.40;99.90;;;;;;5067063;28;20052;-83
2023/08/29 03:28:48;;;;;;;2.47;2.28;;;10.30;99.90;;;;;;5068735;28;20037;-83
2023/08/29 03:31:16;;;;;;;4.63;2.60;;;10.30;99.90;;;;;;5082944;28;20043;-82
2023/08/29 03:33:42;;;;;;;2.92;2.63;;;10.30;99.90;;;;;;5068433;28;20054;-82
2023/08/29 03:36:08;;;;;;;2.63;2.10;;;10.30;99.90;;;;;;5076037;28;20716;-82
2023/08/29 03:38:36;;;;;;;2.15;1.95;;;10.20;99.90;;;;;;5086527;28;20047;-82
2023/08/29 03:41:03;;;;;;;3.38;2.60;;;10.20;99.90;;;;;;5070275;28;20051;-82
2023/08/29 03:43:30;;;;;;;5.47;2.40;;;10.20;99.90;;;;;;5071604;28;20132;-82
2023/08/29 03:46:03;;;;;;;4.13;2.80;;;10.10;99.90;;;;;;5082004;28;20071;-83
2023/08/29 03:48:30;;;;;;;2.58;2.10;;;10.10;99.90;;;;;;5076991;28;20048;-82
2023/08/29 03:50:58;;;;;;;2.30;2.10;;;10.10;99.90;;;;;;5080054;28;20097;-82
2023/08/29 03:53:24;;;;;;;2.20;2.00;;;10.10;99.90;;;;;;5077652;28;20056;-82
2023/08/29 03:55:49;;;;;;;2.53;2.33;;;10.00;99.90;;;;;;5067405;28;20058;-85
2023/08/29 03:58:15;;;;;;;2.47;2.28;;;10.00;99.90;;;;;;5067194;28;20045;-84
2023/08/29 04:00:42;;;;;;;3.25;2.95;;;10.00;99.90;;;;;;5068443;28;20552;-84
2023/08/29 04:03:07;;;;;;;3.10;2.80;;;10.00;99.90;;;;;;5066675;28;20044;-83
2023/08/29 04:05:37;;;;;;;4.47;2.42;;;10.00;99.90;;;;;;5077252;28;20456;-83
2023/08/29 04:08:04;;;;;;;5.03;2.00;;;10.00;99.90;;;;;;5089113;28;20048;-83
2023/08/29 04:10:36;;;;;;;3.03;2.30;;;10.00;99.90;;;;;;5080169;28;20045;-83
2023/08/29 04:13:02;;;;;;;3.08;2.42;;;10.00;99.90;;;;;;5068354;28;20033;-83
2023/08/29 04:15:27;;;;;;;5.72;2.50;;;10.00;99.90;;;;;;5072047;28;20407;-83
2023/08/29 04:17:53;;;;;;;4.60;2.60;;;10.00;99.90;;;;;;5075017;28;20484;-83
2023/08/29 04:20:19;;;;;;;4.88;2.22;;;9.90;99.90;;;;;;5068066;28;20080;-82
2023/08/29 04:22:45;;;;;;;3.13;2.33;;;9.90;99.90;;;;;;5068958;28;20044;-83
2023/08/29 04:25:11;;;;;;;2.70;2.47;;;9.80;99.90;;;;;;5071145;28;20052;-83
2023/08/29 04:27:38;;;;;;;2.33;2.13;;;9.80;99.90;;;;;;5069488;28;20047;-83
2023/08/29 04:30:04;;;;;;;2.60;2.40;;;9.80;99.90;;;;;;5068526;28;20101;-83
2023/08/29 04:32:34;;;;;;;2.63;2.42;;;9.80;99.90;;;;;;5066431;28;20040;-83
2023/08/29 04:35:00;;;;;;;2.75;2.38;;;9.80;99.90;;;;;;5066467;28;20131;-83
2023/08/29 04:37:25;;;;;;;2.25;2.05;;;9.80;99.90;;;;;;5069376;28;20495;-84
2023/08/29 04:39:51;;;;;;;4.78;2.58;;;9.70;99.90;;;;;;5085390;28;20044;-83
2023/08/29 04:42:17;;;;;;;3.60;2.55;;;9.80;99.90;;;;;;5068198;28;20119;-84
2023/08/29 04:44:42;;;;;;;3.45;2.25;;;9.70;99.90;;;;;;5066104;28;20129;-83
2023/08/29 04:47:08;;;;;;;2.35;1.77;;;9.70;99.90;;;;;;5069355;28;20032;-83
2023/08/29 04:49:34;;;;;;;5.15;2.40;;;9.60;99.90;;;;;;5067413;28;20083;-84
2023/08/29 04:52:00;;;;;;;2.78;1.90;;;9.60;99.90;;;;;;5067389;28;20064;-83
2023/08/29 04:54:26;;;;;;;3.13;2.45;;;9.60;99.90;;;;;;5078077;28;20078;-83
2023/08/29 04:56:52;;;;;;;2.63;2.22;;;9.60;99.90;;;;;;5086690;28;20040;-83
2023/08/29 04:59:17;;;;;;;3.45;2.20;;;9.60;99.90;;;;;;5068318;28;20068;-83
2023/08/29 05:01:43;;;;;;;2.03;1.80;;;9.60;99.90;;;;;;5076591;28;20119;-84
2023/08/29 05:04:09;;;;;;;2.20;1.90;;;9.60;99.90;;;;;;5067391;28;20087;-83
2023/08/29 05:06:35;;;;;;;2.10;1.90;;;9.60;99.90;;;;;;5074063;28;20494;-83
2023/08/29 05:09:01;;;;;;;2.58;2.28;;;9.60;99.90;;;;;;5067886;28;20055;-83
2023/08/29 05:11:26;;;;;;;3.38;1.95;;;9.60;99.90;;;;;;5070022;28;20040;-83
2023/08/29 05:13:52;;;;;;;2.30;2.10;;;9.60;99.90;;;;;;5066085;28;20048;-83
2023/08/29 05:16:18;;;;;;;4.28;1.98;;;9.60;99.90;;;;;;5078785;28;20120;-83
2023/08/29 05:18:44;;;;;;;2.47;2.10;;;9.60;99.90;;;;;;5081351;28;20044;-84
2023/08/29 05:21:10;;;;;;;4.45;2.13;;;9.70;99.90;;;;;;5067681;28;20080;-83
2023/08/29 05:23:36;;;;;;;3.25;1.83;;;9.70;99.90;;;;;;5066056;28;20497;-83
2023/08/29 05:26:01;;;;;;;2.42;2.22;;;9.70;99.90;;;;;;5066046;28;20047;-83
2023/08/29 05:28:27;;;;;;;2.00;1.90;;;9.70;99.90;;;;;;5077133;28;20036;-83
2023/08/29 05:30:53;;;;;;;2.53;2.08;;;9.80;99.90;;;;;;5077964;28;20044;-84
2023/08/29 05:33:18;;;;;;;2.80;1.90;;;9.70;99.90;;;;;;5076807;28;20041;-83
2023/08/29 05:35:44;;;;;;;2.28;1.92;;;9.80;99.90;;;;;;5067161;28;20048;-83
2023/08/29 05:38:09;;;;;;;1.80;1.70;;;9.80;99.90;;;;;;5073760;28;20052;-84
2023/08/29 05:40:35;;;;;;;1.77;1.67;;;9.80;99.90;;;;;;5065796;28;20523;-83
2023/08/29 05:43:01;;;;;;;2.67;2.10;;;9.80;99.90;;;;;;5082655;28;20048;-83
2023/08/29 05:45:26;;;;;;;3.30;1.75;;;9.90;99.90;;;;;;5081009;28;20143;-84
2023/08/29 05:47:52;;;;;;;2.17;1.80;;;9.90;99.90;;;;;;5066994;28;20044;-84
2023/08/29 05:50:18;;;;;;;1.75;1.58;;;10.00;99.90;;;;;;5067075;28;20048;-84
2023/08/29 05:52:44;;;;;;;2.28;1.55;;;10.00;99.90;;;;;;5082730;28;20048;-84
2023/08/29 05:55:09;;;;;;;2.10;1.50;;;10.00;99.90;;;;;;5067494;28;20098;-84
2023/08/29 05:57:35;;;;;;;1.30;1.20;;;10.10;99.90;;;;;;5074345;28;20037;-84
2023/08/29 06:00:01;;;;;;;1.58;1.27;;;10.10;99.90;;;;;;5066888;28;20072;-83
2023/08/29 06:02:26;;;;;;;1.80;1.13;;;10.10;99.90;;;;;;5070057;28;20044;-83
2023/08/29 06:04:52;;;;;;;1.40;1.30;;;10.10;99.90;;;;;;5066534;28;20090;-83
2023/08/29 06:07:18;;;;;;;2.10;1.40;;;10.20;99.90;;;;;;5072301;28;20048;-84
2023/08/29 06:09:43;;;;;;;2.25;1.60;;;10.30;99.90;;;;;;5078548;28;20068;-83
2023/08/29 06:12:09;;;;;;;1.67;1.50;;;10.30;99.90;;;;;;5068190;28;20052;-83
2023/08/29 06:14:35;;;;;;;1.52;1.42;;;10.40;99.90;;;;;;5070836;28;20453;-84
2023/08/29 06:17:00;;;;;;;1.30;1.20;;;10.40;99.90;;;;;;5070762;28;20044;-84
2023/08/29 06:19:26;;;;;;;1.60;1.50;;;10.50;99.90;;;;;;5069357;28;20090;-84
2023/08/29 06:21:51;;;;;;;1.20;1.10;;;10.50;99.90;;;;;;5070229;28;20048;-84
2023/08/29 06:24:17;;;;;;;2.08;1.23;;;10.60;99.90;;;;;;5075235;28;20036;-84
2023/08/29 06:26:42;;;;;;;1.15;1.13;;;10.70;99.90;;;;;;5070209;28;20049;-83
2023/08/29 06:29:08;;;;;;;1.27;1.17;;;10.80;99.90;;;;;;5070010;28;20048;-84
2023/08/29 06:31:33;;;;;;;1.30;1.17;;;10.90;99.90;;;;;;5070883;28;20047;-83
2023/08/29 06:33:59;;;;;;;1.17;1.10;;;10.90;99.90;;;;;;5069850;28;20040;-83
2023/08/29 06:36:28;;;;;;;4.35;1.75;;;11.00;99.90;;;;;;5070632;28;20044;-83
2023/08/29 06:38:54;;;;;;;1.77;1.60;;;11.20;99.90;;;;;;5072503;28;20075;-83
2023/08/29 06:41:19;;;;;;;2.47;2.20;;;11.20;99.90;;;;;;5077065;28;20056;-83
2023/08/29 06:43:46;;;;;;;1.80;1.70;;;11.30;99.90;;;;;;5090199;28;20094;-85
2023/08/29 06:46:13;;;;;;;2.13;1.92;;;11.40;99.90;;;;;;5083059;28;20056;-83
2023/08/29 06:48:39;;;;;;;2.53;2.10;;;11.60;99.90;;;;;;5070157;28;20115;-84
2023/08/29 06:51:04;;;;;;;2.70;2.50;;;11.70;99.90;;;;;;5068453;28;20051;-83
2023/08/29 06:53:30;;;;;;;3.88;2.92;;;11.80;99.90;;;;;;5070270;28;20055;-84
2023/08/29 06:55:56;;;;;;;3.42;3.13;;;11.90;99.90;;;;;;5069698;28;20055;-83
2023/08/29 06:58:21;;;;;;;3.55;3.22;;;12.10;99.90;;;;;;5068430;28;20143;-84
2023/08/29 07:00:47;;;;;;;3.50;3.20;;;12.30;99.90;;;;;;5070737;28;20055;-85
2023/08/29 07:03:13;;;;;;;4.80;3.17;;;12.50;99.90;;;;;;5068752;28;20048;-86
2023/08/29 07:05:39;;;;;;;3.47;3.17;;;12.70;99.90;;;;;;5068886;28;20456;-84
2023/08/29 07:08:06;;;;;;;3.70;3.30;;;12.80;99.90;;;;;;5069758;28;20127;-85
2023/08/29 07:10:32;;;;;;;4.38;3.05;;;13.00;99.90;;;;;;5069820;28;20072;-86
2023/08/29 07:12:58;;;;;;;2.78;2.58;;;13.30;99.90;;;;;;5069218;28;20060;-85
2023/08/29 07:15:24;;;;;;;4.93;2.85;;;13.40;99.90;;;;;;5069758;28;20083;-86
2023/08/29 07:17:49;;;;;;;3.22;2.95;;;13.70;99.90;;;;;;5088149;28;20064;-84
2023/08/29 07:20:15;;;;;;;3.28;2.72;;;13.90;99.90;;;;;;5073413;28;20036;-84
2023/08/29 07:22:43;;;;;;;3.05;2.80;;;14.10;99.90;;;;;;5067955;28;20052;-85
2023/08/29 07:25:09;;;;;;;2.97;2.45;;;14.30;99.90;;;;;;5050695;28;20135;-86
2023/08/29 07:27:34;;;;;;;4.22;2.60;;;14.50;99.90;;;;;;5066731;28;20702;-86
2023/08/29 07:30:00;;;;;;;2.30;2.10;;;14.70;99.90;;;;;;5067791;28;20044;-85
2023/08/29 07:32:26;;;;;;;4.22;2.53;;;14.80;99.90;;;;;;5067969;28;20067;-86
2023/08/29 07:34:52;;;;;;;2.97;2.45;;;15.00;99.90;;;;;;5067701;28;20127;-86
2023/08/29 07:37:17;;;;;;;3.42;2.58;;;15.10;99.90;;;;;;5068091;28;20037;-86
2023/08/29 07:39:43;;;;;;;2.83;2.20;;;15.20;99.90;;;;;;5067483;28;20056;-86
2023/08/29 07:42:09;;;;;;;2.33;2.13;;;15.40;99.90;;;;;;5067619;28;20044;-86
2023/08/29 07:44:35;;;;;;;3.17;2.17;;;15.60;99.90;;;;;;5067681;28;20056;-86
2023/08/29 07:47:00;;;;;;;3.53;1.90;;;15.80;99.90;;;;;;5066267;28;20049;-87
2023/08/29 07:49:27;;;;;;;2.47;1.77;;;15.90;99.90;;;;;;5073605;28;20653;-85
2023/08/29 07:51:54;;;;;;;2.17;1.98;;;16.10;99.90;;;;;;5086960;28;20093;-84
2023/08/29 07:54:20;;;;;;;1.95;1.75;;;16.20;99.90;;;;;;5089104;28;20043;-84
2023/08/29 07:56:45;;;;;;;1.85;1.65;;;16.30;99.90;;;;;;5080175;28;20036;-83
2023/08/29 07:59:11;;;;;;;3.08;2.10;;;16.50;99.90;;;;;;5068088;28;20049;-84
2023/08/29 08:01:37;;;;;;;2.08;1.67;;;16.60;99.90;;;;;;5070799;28;20043;-84
2023/08/29 08:04:05;;;;;;;2.13;1.60;;;16.70;99.90;;;;;;5088309;28;20047;-84
2023/08/29 08:06:31;;;;;;;2.17;1.60;;;16.90;99.90;;;;;;5080935;28;20039;-84
2023/08/29 08:08:57;;;;;;;5.45;1.77;;;17.10;99.90;;;;;;5083514;28;20048;-83
2023/08/29 08:11:23;;;;;;;2.78;1.88;;;17.20;99.90;;;;;;5087631;28;20117;-82
2023/08/29 08:13:49;;;;;;;1.50;1.40;;;17.30;99.90;;;;;;5088350;28;20116;-84
2023/08/29 08:16:14;;;;;;;1.80;1.30;;;17.50;99.90;;;;;;5089053;28;20482;-83
2023/08/29 08:18:40;;;;;;;2.75;1.30;;;17.50;99.90;;;;;;5075317;28;20092;-83
2023/08/29 08:21:06;;;;;;;1.40;1.30;;;17.60;99.90;;;;;;5075556;28;20084;-82
2023/08/29 08:23:31;;;;;;;1.45;1.20;;;17.60;99.90;;;;;;5067338;28;20482;-83
2023/08/29 08:25:57;;;;;;;2.47;1.33;;;17.60;99.90;;;;;;5068422;28;20094;-83
2023/08/29 08:28:23;;;;;;;1.45;1.05;;;17.90;99.90;;;;;;5068339;28;20124;-84
2023/08/29 08:30:49;;;;;;;1.30;1.05;;;17.80;99.90;;;;;;5067943;28;20037;-84
2023/08/29 08:33:14;;;;;;;2.50;1.20;;;17.70;99.90;;;;;;5067025;28;20052;-83
2023/08/29 08:35:40;;;;;;;1.77;1.17;;;17.80;99.90;;;;;;5068273;28;20079;-83
2023/08/29 08:38:07;;;;;;;1.50;1.35;;;17.80;99.90;;;;;;5067113;28;20271;-83
2023/08/29 08:40:34;;;;;;;1.30;1.17;;;17.90;99.90;;;;;;5050427;28;20109;-83
2023/08/29 08:43:05;;;;;;;3.38;1.40;;;17.90;99.90;;;;;;5066046;28;20076;-82
2023/08/29 08:45:31;;;;;;;3.08;1.65;;;18.00;99.90;;;;;;5066770;28;20048;-83
2023/08/29 08:47:59;;;;;;;2.75;1.33;;;18.00;99.90;;;;;;5067448;28;20053;-84
2023/08/29 08:50:26;;;;;;;1.83;1.20;;;18.00;99.90;;;;;;5065964;28;20049;-83
2023/08/29 08:52:52;;;;;;;2.55;1.30;;;18.10;99.90;;;;;;5067102;28;20539;-83
2023/08/29 08:55:18;;;;;;;1.75;1.40;;;18.10;99.90;;;;;;5081384;28;20453;-84
2023/08/29 08:57:43;;;;;;;1.85;1.40;;;18.10;99.90;;;;;;5088176;28;20044;-83
2023/08/29 09:00:09;;;;;;;1.95;1.02;;;18.10;99.90;;;;;;5087448;28;20417;-82
2023/08/29 09:02:40;;;;;;;3.58;1.80;;;18.20;99.90;;;;;;5086715;28;20051;-82
2023/08/29 09:05:06;;;;;;;2.40;1.70;;;18.20;99.90;;;;;;5088145;28;20047;-82
2023/08/29 09:07:39;;;;;;;2.63;1.40;;;18.30;99.90;;;;;;5087677;28;20036;-82
2023/08/29 09:10:16;;;;;;;4.88;1.10;;;18.40;99.90;;;;;;5086300;28;20148;-82
2023/08/29 09:12:49;;;;;;;2.45;1.40;;;18.40;99.90;;;;;;5067920;28;20055;-83
2023/08/29 09:15:16;;;;;;;2.13;1.35;;;18.50;99.90;;;;;;5066451;28;20567;-84
2023/08/29 09:17:49;;;;;;;2.63;1.33;;;18.60;99.90;;;;;;5067124;28;20080;-83
2023/08/29 09:20:16;;;;;;;1.23;1.00;;;18.50;99.90;;;;;;5067845;28;20052;-83
2023/08/29 09:22:42;;;;;;;2.95;1.40;;;18.80;99.90;;;;;;5049842;28;20045;-83
2023/08/29 09:25:08;;;;;;;1.23;1.02;;;18.80;99.90;;;;;;5064743;28;20448;-83
2023/08/29 09:27:46;;;;;;;1.85;1.30;;;18.90;99.90;;;;;;5066074;28;20041;-84
2023/08/29 09:30:14;;;;;;;3.70;1.30;;;19.00;99.90;;;;;;5065894;28;20594;-83
2023/08/29 09:32:45;;;;;;;2.75;1.30;;;19.00;99.90;;;;;;5065597;28;20079;-82
2023/08/29 09:35:15;;;;;;;2.83;1.10;;;19.20;99.90;;;;;;5077026;28;20075;-83
2023/08/29 09:37:46;;;;;;;3.17;1.50;;;19.30;99.90;;;;;;5084153;28;20410;-84
2023/08/29 09:40:16;;;;;;;3.70;1.40;;;19.30;99.90;;;;;;5067066;28;20040;-83
2023/08/29 09:42:42;;;;;;;2.17;1.20;;;19.40;99.90;;;;;;5066648;28;20449;-82
2023/08/29 09:45:14;;;;;;;1.08;0.98;;;19.50;99.90;;;;;;5067295;28;20048;-81
2023/08/29 09:47:39;;;;;;;1.90;1.17;;;19.60;99.90;;;;;;5068807;28;20051;-83
2023/08/29 09:50:06;;;;;;;1.52;0.90;;;19.90;99.90;;;;;;5070962;28;20417;-82
2023/08/29 09:52:32;;;;;;;1.27;0.80;;;19.90;99.90;;;;;;5071349;28;20060;-82
2023/08/29 09:55:01;;;;;;;2.38;0.90;;;19.90;99.90;;;;;;5092038;28;20048;-82
2023/08/29 09:57:31;;;;;;;0.95;0.80;;;19.90;99.90;;;;;;5092394;28;20509;-82
2023/08/29 09:59:57;;;;;;;2.63;0.80;;;19.90;99.90;;;;;;5092103;28;20525;-83
2023/08/29 10:02:25;;;;;;;2.22;0.80;;;19.90;99.90;;;;;;5094932;28;20553;-82
2023/08/29 10:05:03;;;;;;;1.73;0.73;;;19.70;99.90;;;;;;5090902;28;20087;-80
2023/08/29 10:07:37;;;;;;;2.22;0.80;;;19.80;99.90;;;;;;5090295;28;20081;-81
2023/08/29 10:10:04;;;;;;;2.70;0.70;;;19.80;99.90;;;;;;5071886;28;20056;-80
2023/08/29 10:12:30;;;;;;;2.25;0.90;;;19.80;99.90;;;;;;5073801;28;20041;-81
2023/08/29 10:14:57;;;;;;;1.77;0.80;;;19.80;99.90;;;;;;5076641;28;20067;-80
2023/08/29 10:17:24;;;;;;;1.55;0.82;;;19.70;99.90;;;;;;5084743;28;20059;-80
2023/08/29 10:19:52;;;;;;;1.48;0.85;;;19.70;99.90;;;;;;5080720;28;20048;-80
2023/08/29 10:22:17;;;;;;;1.20;0.60;;;19.70;99.90;;;;;;5072609;28;20107;-80
2023/08/29 10:24:44;;;;;;;2.42;0.85;;;19.80;99.90;;;;;;5072890;28;20506;-80
2023/08/29 10:27:10;;;;;;;3.53;0.90;;;19.80;99.90;;;;;;5080264;28;20429;-82
2023/08/29 10:29:37;;;;;;;3.35;1.00;;;19.80;99.90;;;;;;5080140;28;20054;-82
2023/08/29 10:32:05;;;;;;;1.58;0.90;;;19.80;99.90;;;;;;5073090;28;20057;-82
2023/08/29 10:34:30;;;;;;;1.35;0.75;;;19.70;99.90;;;;;;5077433;28;20041;-81
2023/08/29 10:36:58;;;;;;;1.52;0.57;;;19.60;99.90;;;;;;5070395;28;20044;-81
2023/08/29 10:39:27;;;;;;;1.65;0.70;;;19.50;99.90;;;;;;5077155;28;20053;-81
2023/08/29 10:41:55;;;;;;;0.93;0.70;;;19.50;99.90;;;;;;5071122;28;20052;-82
2023/08/29 10:44:40;;;;;;;0.60;0.60;;;19.50;99.90;;;;;;5075525;28;20037;-83
2023/08/29 10:47:20;;;;;;;1.63;0.80;;;19.40;99.90;;;;;;5071413;28;20175;-82
2023/08/29 10:49:47;;;;;;;0.82;0.60;;;19.40;99.90;;;;;;5070109;28;20755;-83
2023/08/29 10:52:14;;;;;;;0.80;0.80;;;19.30;99.90;;;;;;5077110;28;20371;-83
2023/08/29 10:54:40;;;;;;;1.00;0.70;;;19.40;99.90;;;;;;5072977;28;20055;-82
2023/08/29 10:57:38;;;;;;;1.15;0.70;;;19.50;99.90;;;;;;5068772;28;20207;-82
2023/08/29 11:00:16;;;;;;;0.75;0.70;;;19.40;99.90;;;;;;5067223;28;20114;-83
2023/08/29 11:02:43;;;;;;;2.45;0.80;;;19.40;99.90;;;;;;5069287;28;20055;-83
2023/08/29 11:05:09;;;;;;;2.22;0.85;;;19.30;99.90;;;;;;5083285;28;20036;-83
2023/08/29 11:07:35;;;;;;;1.10;1.00;;;19.30;99.90;;;;;;5069148;28;20121;-82
2023/08/29 11:10:20;;;;;;;2.75;1.00;;;19.30;99.90;;;;;;5088823;28;20047;-82
2023/08/29 11:13:09;;;;;;;0.93;0.70;;;19.20;99.90;;;;;;5091002;28;20051;-82
2023/08/29 11:15:49;;;;;;;0.93;0.63;;;19.10;99.90;;;;;;5090967;28;20048;-82
2023/08/29 11:18:19;;;;;;;1.25;0.63;;;19.10;99.90;;;;;;5079048;28;20040;-83
2023/08/29 11:20:46;;;;;;;1.23;0.80;;;19.10;99.90;;;;;;5073557;28;20080;-83
2023/08/29 11:23:12;;;;;;;1.60;0.90;;;19.20;99.90;;;;;;5068998;28;20040;-81
2023/08/29 11:25:38;;;;;;;1.17;0.73;;;19.20;99.90;;;;;;5071960;28;20058;-82
2023/08/29 11:28:04;;;;;;;1.58;0.80;;;19.30;99.90;;;;;;5089114;28;20040;-82
2023/08/29 11:30:30;;;;;;;0.60;0.50;;;19.30;99.90;;;;;;5089880;28;20122;-82
2023/08/29 11:32:55;;;;;;;2.15;1.00;;;19.30;99.90;;;;;;5084865;28;20203;-82
2023/08/29 11:35:21;;;;;;;1.75;0.85;;;19.40;99.90;;;;;;5085078;28;20048;-82
2023/08/29 11:37:47;;;;;;;1.33;0.80;;;19.40;99.90;;;;;;5070392;28;20487;-83
2023/08/29 11:40:13;;;;;;;1.23;0.75;;;19.60;99.90;;;;;;5070251;28;20134;-83
2023/08/29 11:42:39;;;;;;;0.80;0.80;;;19.60;99.90;;;;;;5070156;28;20390;-84
2023/08/29 11:45:08;;;;;;;1.35;0.75;;;19.80;99.90;;;;;;5070534;28;20098;-83
2023/08/29 11:47:34;;;;;;;1.52;0.88;;;19.90;99.90;;;;;;5069724;28;20056;-83
2023/08/29 11:50:04;;;;;;;1.63;0.93;;;20.00;99.90;;;;;;5067967;28;20399;-83
2023/08/29 11:52:30;;;;;;;1.75;0.70;;;20.20;99.90;;;;;;5067337;28;20052;-82
2023/08/29 11:54:56;;;;;;;2.15;0.90;;;20.40;99.90;;;;;;5082385;28;20083;-83
2023/08/29 11:57:23;;;;;;;2.03;1.02;;;20.50;99.90;;;;;;5078059;28;20083;-82
2023/08/29 11:59:52;;;;;;;1.48;1.02;;;20.50;99.90;;;;;;5067599;28;20080;-82
2023/08/29 12:02:21;;;;;;;0.82;0.82;;;20.60;99.90;;;;;;5067790;28;20067;-82
2023/08/29 12:04:48;;;;;;;1.95;1.00;;;20.70;99.90;;;;;;5068447;28;20048;-83
2023/08/29 12:07:17;;;;;;;2.92;0.98;;;20.70;99.90;;;;;;5069390;28;20450;-83
2023/08/29 12:09:45;;;;;;;1.10;1.00;;;20.80;99.90;;;;;;5076144;28;20396;-83
2023/08/29 12:12:30;;;;;;;1.38;1.05;;;20.60;99.90;;;;;;5067664;28;20520;-83
2023/08/29 12:14:56;;;;;;;4.15;2.05;;;20.50;99.90;;;;;;5068314;28;20048;-82
2023/08/29 12:17:23;;;;;;;2.10;1.30;;;20.40;99.90;;;;;;5068962;28;20060;-83
2023/08/29 12:19:49;;;;;;;2.03;1.63;;;20.30;99.90;;;;;;5073185;28;20105;-83
2023/08/29 12:22:19;;;;;;;1.90;1.80;;;20.30;99.90;;;;;;5088901;28;20456;-83
2023/08/29 12:25:00;;;;;;;3.15;1.55;;;20.20;99.90;;;;;;5088736;28;20057;-83
2023/08/29 12:27:25;;;;;;;2.55;1.77;;;20.20;99.90;;;;;;5088725;28;20050;-83
2023/08/29 12:29:51;;;;;;;3.28;1.77;;;20.30;99.90;;;;;;5083075;28;20044;-82
2023/08/29 12:32:16;;;;;;;1.88;1.40;;;20.40;99.90;;;;;;5075148;28;20040;-83
2023/08/29 12:34:45;;;;;;;2.45;1.63;;;20.40;99.90;;;;;;5080883;28;20090;-83
2023/08/29 12:37:12;;;;;;;4.00;1.55;;;20.50;99.90;;;;;;5068103;28;20383;-82
2023/08/29 12:39:38;;;;;;;1.60;1.50;;;20.50;99.90;;;;;;5068180;28;20074;-83
2023/08/29 12:42:04;;;;;;;1.75;1.58;;;20.50;99.90;;;;;;5067066;28;20048;-82
2023/08/29 12:44:30;;;;;;;2.22;1.90;;;20.60;99.90;;;;;;5070115;28;20111;-83
2023/08/29 12:46:55;;;;;;;2.10;1.45;;;20.60;99.90;;;;;;5073515;28;20132;-83
2023/08/29 12:49:21;;;;;;;2.08;1.90;;;20.60;99.90;;;;;;5066312;28;20060;-82